createdAt,value
2018-05-07T00:01:06.013Z,12.10
2018-05-07T00:03:34.686Z,12.83
2018-05-07T00:06:04.523Z,12.63
2018-05-07T00:08:33.428Z,12.43
2018-05-07T00:11:02.298Z,12.17
2018-05-07T00:13:30.742Z,11.77
2018-05-07T00:15:59.152Z,13.90
2018-05-07T00:18:27.315Z,12.60
2018-05-07T00:20:55.212Z,12.57
2018-05-07T00:23:24.064Z,12.07
2018-05-07T00:25:52.257Z,12.93
2018-05-07T00:28:21.309Z,12.43
2018-05-07T00:30:50.363Z,13.27
2018-05-07T00:33:19.555Z,12.90
2018-05-07T00:35:47.812Z,12.63
2018-05-07T00:38:16.270Z,13.00
2018-05-07T00:40:44.160Z,12.40
2018-05-07T00:43:12.332Z,13.10
2018-05-07T00:45:40.379Z,12.73
2018-05-07T00:48:08.875Z,13.17
2018-05-07T00:50:37.437Z,12.10
2018-05-07T00:53:05.745Z,12.20
2018-05-07T00:55:33.821Z,11.93
2018-05-07T00:58:01.999Z,12.23
2018-05-07T01:00:30.074Z,12.27
2018-05-07T01:02:58.293Z,12.00
2018-05-07T01:05:26.204Z,12.67
2018-05-07T01:07:54.274Z,12.90
2018-05-07T01:10:22.345Z,12.57
2018-05-07T01:12:50.672Z,11.90
2018-05-07T01:15:19.424Z,12.50
2018-05-07T01:17:47.281Z,13.30
2018-05-07T01:20:15.492Z,12.57
2018-05-07T01:22:44.114Z,12.73
2018-05-07T01:25:12.103Z,12.80
2018-05-07T01:27:40.174Z,12.70
2018-05-07T01:30:08.538Z,12.93
2018-05-07T01:32:37.108Z,12.70
2018-05-07T01:35:05.714Z,12.87
2018-05-07T01:37:33.788Z,13.00
2018-05-07T01:40:02.075Z,11.97
2018-05-07T01:42:30.404Z,12.93
2018-05-07T01:44:58.613Z,12.60
2018-05-07T01:47:26.659Z,12.87
2018-05-07T01:49:55.368Z,13.37
2018-05-07T01:52:23.238Z,13.20
2018-05-07T01:54:51.202Z,11.63
2018-05-07T01:57:19.453Z,12.40
2018-05-07T01:59:47.870Z,13.27
2018-05-07T02:02:16.105Z,13.70
2018-05-07T02:04:44.410Z,12.67
2018-05-07T02:07:12.276Z,12.40
2018-05-07T02:09:40.532Z,11.53
2018-05-07T02:12:08.414Z,12.60
2018-05-07T02:14:36.689Z,12.77
2018-05-07T02:17:04.677Z,12.20
2018-05-07T02:19:33.930Z,14.07
2018-05-07T02:22:02.322Z,12.73
2018-05-07T02:24:30.204Z,13.60
2018-05-07T02:26:58.400Z,12.40
2018-05-07T02:29:27.275Z,13.17
2018-05-07T02:31:55.611Z,13.50
2018-05-07T02:34:24.438Z,12.03
2018-05-07T02:36:53.101Z,12.43
2018-05-07T02:39:21.807Z,12.40
2018-05-07T02:41:49.861Z,12.10
2018-05-07T02:44:18.766Z,11.93
2018-05-07T02:46:47.220Z,12.30
2018-05-07T02:49:15.442Z,12.00
2018-05-07T02:51:43.599Z,12.43
2018-05-07T02:54:13.505Z,12.67
2018-05-07T02:56:41.858Z,13.40
2018-05-07T02:59:10.268Z,16.30
2018-05-07T03:01:39.138Z,15.47
2018-05-07T03:04:07.330Z,16.30
2018-05-07T03:06:35.496Z,14.63
2018-05-07T03:09:03.576Z,13.90
2018-05-07T03:11:31.948Z,14.80
2018-05-07T03:14:00.122Z,15.80
2018-05-07T03:16:28.277Z,14.77
2018-05-07T03:18:56.468Z,14.83
2018-05-07T03:21:24.618Z,13.97
2018-05-07T03:23:53.017Z,13.10
2018-05-07T03:26:21.011Z,14.00
2018-05-07T03:28:50.079Z,14.10
2018-05-07T03:31:18.147Z,15.40
2018-05-07T03:33:46.437Z,14.20
2018-05-07T03:36:14.939Z,13.60
2018-05-07T03:38:43.696Z,14.33
2018-05-07T03:41:13.005Z,13.00
2018-05-07T03:43:42.796Z,14.17
2018-05-07T03:46:10.984Z,15.50
2018-05-07T03:48:39.573Z,14.87
2018-05-07T03:51:07.542Z,13.53
2018-05-07T03:53:35.918Z,14.93
2018-05-07T03:56:04.098Z,14.20
2018-05-07T03:58:32.788Z,13.83
2018-05-07T04:01:01.257Z,14.10
2018-05-07T04:03:31.091Z,14.43
2018-05-07T04:06:00.147Z,14.97
2018-05-07T04:08:29.034Z,15.37
2018-05-07T04:10:59.164Z,13.70
2018-05-07T04:13:27.474Z,14.50
2018-05-07T04:15:56.857Z,14.17
2018-05-07T04:18:37.104Z,13.63
2018-05-07T04:21:13.884Z,14.70
2018-05-07T04:23:53.953Z,14.23
2018-05-07T04:26:23.335Z,14.90
2018-05-07T04:28:51.977Z,13.23
2018-05-07T04:31:21.612Z,14.30
2018-05-07T04:33:50.455Z,14.77
2018-05-07T04:36:18.914Z,14.47
2018-05-07T04:38:48.097Z,14.60
2018-05-07T04:41:16.877Z,14.93
2018-05-07T04:43:45.237Z,14.30
2018-05-07T04:46:13.744Z,14.30
2018-05-07T04:48:42.919Z,15.63
2018-05-07T04:51:11.505Z,13.70
2018-05-07T04:53:40.020Z,15.13
2018-05-07T04:56:09.199Z,15.53
2018-05-07T04:58:37.648Z,15.20
2018-05-07T05:01:06.180Z,14.00
2018-05-07T05:03:36.869Z,14.60
2018-05-07T05:06:05.193Z,15.40
2018-05-07T05:08:34.679Z,16.90
2018-05-07T05:11:04.712Z,15.97
2018-05-07T05:13:33.790Z,14.70
2018-05-07T05:16:02.422Z,15.90
2018-05-07T05:18:31.357Z,16.23
2018-05-07T05:20:59.657Z,15.70
2018-05-07T05:23:29.095Z,16.77
2018-05-07T05:25:57.343Z,15.50
2018-05-07T05:28:26.794Z,16.57
2018-05-07T05:30:55.301Z,17.20
2018-05-07T05:33:24.289Z,17.20
2018-05-07T05:35:52.776Z,16.20
2018-05-07T05:38:21.063Z,17.03
2018-05-07T05:40:49.517Z,14.63
2018-05-07T05:43:17.910Z,15.90
2018-05-07T05:45:46.278Z,15.17
2018-05-07T05:48:14.579Z,14.60
2018-05-07T05:50:43.776Z,16.17
2018-05-07T05:53:12.973Z,16.33
2018-05-07T05:55:41.860Z,15.20
2018-05-07T05:58:10.237Z,16.20
2018-05-07T06:00:39.124Z,15.80
2018-05-07T06:03:07.857Z,16.40
2018-05-07T06:05:36.352Z,18.20
2018-05-07T06:08:05.078Z,16.67
2018-05-07T06:10:33.989Z,16.87
2018-05-07T06:13:02.924Z,15.87
2018-05-07T06:15:31.222Z,17.77
2018-05-07T06:17:59.673Z,15.03
2018-05-07T06:20:28.203Z,17.17
2018-05-07T06:22:57.913Z,16.80
2018-05-07T06:25:27.367Z,16.03
2018-05-07T06:27:55.853Z,16.17
2018-05-07T06:30:24.446Z,16.50
2018-05-07T06:32:53.362Z,15.17
2018-05-07T06:35:21.759Z,15.97
2018-05-07T06:37:50.806Z,16.13
2018-05-07T06:40:19.729Z,14.80
2018-05-07T06:42:48.017Z,14.83
2018-05-07T06:45:17.122Z,16.87
2018-05-07T06:47:46.657Z,15.13
2018-05-07T06:50:15.056Z,14.43
2018-05-07T06:52:43.455Z,13.90
2018-05-07T06:55:11.955Z,15.17
2018-05-07T06:57:41.537Z,16.23
2018-05-07T07:00:10.103Z,15.23
2018-05-07T07:02:38.289Z,16.50
2018-05-07T07:05:06.886Z,13.83
2018-05-07T07:07:36.040Z,15.10
2018-05-07T07:10:04.771Z,14.97
2018-05-07T07:12:33.345Z,14.27
2018-05-07T07:15:01.538Z,13.40
2018-05-07T07:17:31.375Z,13.43
2018-05-07T07:19:59.699Z,14.73
2018-05-07T07:22:28.325Z,13.80
2018-05-07T07:24:57.300Z,13.53
2018-05-07T07:27:26.708Z,12.03
2018-05-07T07:29:55.566Z,13.70
2018-05-07T07:32:25.702Z,13.10
2018-05-07T07:34:54.817Z,14.00
2018-05-07T07:37:24.008Z,12.97
2018-05-07T07:39:53.621Z,12.90
2018-05-07T07:42:23.034Z,14.37
2018-05-07T07:44:52.101Z,12.67
2018-05-07T07:47:22.469Z,13.17
2018-05-07T07:49:50.901Z,13.20
2018-05-07T07:52:19.858Z,12.70
2018-05-07T07:54:47.997Z,12.07
2018-05-07T07:57:17.365Z,12.10
2018-05-07T07:59:45.380Z,13.43
2018-05-07T08:02:13.925Z,12.80
2018-05-07T08:04:43.429Z,11.97
2018-05-07T08:07:12.005Z,11.60
2018-05-07T08:09:40.276Z,10.57
2018-05-07T08:12:09.093Z,12.00
2018-05-07T08:14:37.956Z,12.03
2018-05-07T08:17:06.421Z,11.23
2018-05-07T08:19:35.189Z,11.53
2018-05-07T08:22:04.565Z,11.43
2018-05-07T08:24:32.981Z,11.53
2018-05-07T08:27:01.643Z,11.70
2018-05-07T08:29:30.085Z,10.60
2018-05-07T08:31:59.287Z,10.70
2018-05-07T08:34:28.037Z,10.63
2018-05-07T08:36:56.127Z,10.67
2018-05-07T08:39:24.309Z,10.70
2018-05-07T08:41:53.787Z,11.33
2018-05-07T08:44:22.491Z,10.50
2018-05-07T08:46:51.032Z,12.23
2018-05-07T08:49:19.366Z,12.77
2018-05-07T08:51:48.566Z,11.33
2018-05-07T08:54:17.541Z,10.82
2018-05-07T08:56:46.965Z,11.50
2018-05-07T08:59:16.107Z,10.90
2018-05-07T09:01:44.266Z,10.77
2018-05-07T09:04:12.967Z,11.65
2018-05-07T09:06:41.671Z,11.30
2018-05-07T09:09:10.085Z,10.95
2018-05-07T09:11:40.165Z,10.18
2018-05-07T09:14:08.878Z,10.50
2018-05-07T09:16:38.849Z,10.50
2018-05-07T09:19:07.170Z,10.82
2018-05-07T09:21:36.857Z,10.80
2018-05-07T09:24:05.247Z,10.93
2018-05-07T09:26:34.035Z,10.95
2018-05-07T09:29:02.119Z,10.35
2018-05-07T09:31:31.948Z,10.88
2018-05-07T09:34:00.607Z,11.05
2018-05-07T09:36:28.775Z,11.30
2018-05-07T09:38:57.867Z,11.65
2018-05-07T09:41:26.302Z,12.05
2018-05-07T09:43:54.922Z,11.52
2018-05-07T09:46:23.208Z,11.95
2018-05-07T09:48:51.698Z,11.70
2018-05-07T09:51:22.374Z,11.38
2018-05-07T09:53:50.499Z,10.18
2018-05-07T09:56:19.849Z,11.12
2018-05-07T09:58:58.111Z,10.35
2018-05-07T10:01:27.547Z,11.12
2018-05-07T10:03:56.116Z,10.43
2018-05-07T10:06:25.986Z,10.48
2018-05-07T10:08:54.174Z,10.40
2018-05-07T10:11:22.444Z,11.15
2018-05-07T10:13:50.705Z,10.57
2018-05-07T10:16:19.299Z,10.15
2018-05-07T10:18:47.502Z,10.15
2018-05-07T10:21:16.686Z,10.50
2018-05-07T10:23:45.181Z,9.07
2018-05-07T10:26:14.263Z,11.75
2018-05-07T10:28:42.639Z,17.75
2018-05-07T10:31:10.983Z,11.30
2018-05-07T10:33:39.591Z,11.57
2018-05-07T10:36:08.562Z,11.35
2018-05-07T10:38:36.951Z,9.55
2018-05-07T10:41:05.159Z,9.90
2018-05-07T10:43:35.079Z,11.48
2018-05-07T10:46:04.719Z,10.90
2018-05-07T10:48:33.542Z,11.73
2018-05-07T10:51:02.039Z,11.60
2018-05-07T10:53:31.238Z,11.05
2018-05-07T10:55:59.895Z,9.57
2018-05-07T10:58:28.617Z,10.35
2018-05-07T11:00:57.402Z,10.90
2018-05-07T11:03:26.695Z,10.90
2018-05-07T11:05:56.391Z,10.88
2018-05-07T11:08:25.742Z,9.93
2018-05-07T11:10:56.449Z,9.00
2018-05-07T11:13:26.821Z,8.75
2018-05-07T11:15:55.439Z,8.88
2018-05-07T11:18:26.678Z,8.60
2018-05-07T11:20:57.271Z,8.30
2018-05-07T11:23:26.022Z,8.75
2018-05-07T11:25:54.870Z,9.10
2018-05-07T11:28:23.348Z,9.57
2018-05-07T11:30:51.549Z,8.68
2018-05-07T11:33:20.333Z,8.45
2018-05-07T11:35:48.689Z,8.63
2018-05-07T11:38:17.501Z,8.57
2018-05-07T11:40:45.761Z,9.32
2018-05-07T11:43:14.173Z,8.40
2018-05-07T11:45:45.853Z,9.55
2018-05-07T11:48:14.981Z,8.63
2018-05-07T11:50:43.801Z,9.50
2018-05-07T11:53:12.852Z,9.20
2018-05-07T11:55:41.375Z,8.98
2018-05-07T11:58:09.741Z,9.85
2018-05-07T12:00:38.652Z,9.40
2018-05-07T12:03:07.793Z,9.40
2018-05-07T12:05:36.318Z,9.32
2018-05-07T12:08:04.482Z,8.93
2018-05-07T12:10:33.284Z,9.90
2018-05-07T12:13:01.364Z,9.77
2018-05-07T12:15:30.698Z,9.00
2018-05-07T12:17:59.541Z,9.15
2018-05-07T12:20:27.700Z,8.90
2018-05-07T12:22:56.404Z,9.30
2018-05-07T12:25:24.896Z,8.75
2018-05-07T12:27:54.104Z,8.68
2018-05-07T12:30:23.290Z,9.00
2018-05-07T12:32:52.479Z,7.97
2018-05-07T12:35:20.924Z,8.15
2018-05-07T12:37:49.917Z,8.60
2018-05-07T12:40:18.346Z,8.23
2018-05-07T12:42:47.223Z,8.00
2018-05-07T12:45:16.486Z,8.23
2018-05-07T12:47:45.025Z,9.27
2018-05-07T12:50:13.146Z,8.13
2018-05-07T12:52:41.964Z,8.02
2018-05-07T12:55:11.264Z,8.10
2018-05-07T12:57:39.633Z,8.30
2018-05-07T13:00:08.111Z,8.10
2018-05-07T13:02:36.703Z,8.00
2018-05-07T13:05:05.678Z,8.20
2018-05-07T13:07:33.774Z,6.60
2018-05-07T13:10:02.549Z,7.37
2018-05-07T13:12:31.743Z,6.85
2018-05-07T13:15:00.399Z,6.97
2018-05-07T13:17:28.958Z,8.45
2018-05-07T13:19:58.110Z,7.50
2018-05-07T13:22:27.120Z,6.17
2018-05-07T13:24:56.675Z,6.35
2018-05-07T13:27:24.991Z,6.95
2018-05-07T13:29:55.022Z,8.00
2018-05-07T13:32:24.270Z,10.77
2018-05-07T13:34:52.804Z,8.20
2018-05-07T13:37:22.798Z,7.30
2018-05-07T13:39:51.375Z,7.03
2018-05-07T13:42:20.173Z,9.30
2018-05-07T13:44:48.974Z,9.30
2018-05-07T13:47:19.510Z,9.20
2018-05-07T13:49:48.974Z,8.93
2018-05-07T13:52:17.503Z,8.97
2018-05-07T13:54:46.041Z,7.60
2018-05-07T13:57:14.097Z,8.30
2018-05-07T13:59:42.814Z,8.07
2018-05-07T14:02:11.698Z,8.13
2018-05-07T14:04:40.186Z,7.80
2018-05-07T14:07:08.557Z,7.90
2018-05-07T14:09:37.704Z,7.70
2018-05-07T14:12:06.261Z,8.00
2018-05-07T14:14:36.048Z,8.20
2018-05-07T14:17:04.338Z,9.07
2018-05-07T14:19:34.154Z,8.70
2018-05-07T14:22:03.309Z,7.90
2018-05-07T14:24:31.624Z,7.87
2018-05-07T14:27:00.875Z,8.27
2018-05-07T14:29:29.529Z,7.23
2018-05-07T14:31:57.926Z,7.47
2018-05-07T14:34:26.392Z,7.40
2018-05-07T14:36:54.734Z,6.77
2018-05-07T14:39:23.649Z,7.47
2018-05-07T14:41:52.406Z,8.13
2018-05-07T14:44:21.263Z,7.60
2018-05-07T14:46:51.005Z,7.90
2018-05-07T14:49:19.293Z,7.40
2018-05-07T14:51:48.522Z,7.43
2018-05-07T14:54:16.960Z,7.50
2018-05-07T14:56:45.556Z,8.07
2018-05-07T14:59:14.152Z,8.60
2018-05-07T15:01:43.552Z,8.20
2018-05-07T15:04:12.729Z,8.53
2018-05-07T15:06:41.121Z,8.33
2018-05-07T15:09:10.166Z,8.70
2018-05-07T15:11:39.208Z,10.13
2018-05-07T15:14:19.754Z,10.27
2018-05-07T15:16:48.142Z,9.70
2018-05-07T15:19:16.521Z,8.00
2018-05-07T15:21:44.782Z,8.77
2018-05-07T15:24:13.194Z,8.73
2018-05-07T15:26:42.372Z,8.40
2018-05-07T15:29:10.820Z,9.00
2018-05-07T15:31:40.170Z,8.90
2018-05-07T15:34:09.225Z,8.60
2018-05-07T15:36:38.046Z,7.73
2018-05-07T15:39:07.573Z,7.97
2018-05-07T15:41:36.144Z,8.60
2018-05-07T15:44:06.689Z,8.60
2018-05-07T15:46:34.937Z,8.80
2018-05-07T15:49:04.367Z,7.87
2018-05-07T15:51:32.905Z,8.20
2018-05-07T15:54:01.294Z,9.43
2018-05-07T15:56:30.952Z,7.97
2018-05-07T15:58:59.569Z,7.57
2018-05-07T16:01:28.365Z,6.80
2018-05-07T16:03:56.758Z,6.80
2018-05-07T16:06:26.277Z,6.60
2018-05-07T16:08:55.201Z,9.27
2018-05-07T16:11:23.634Z,14.23
2018-05-07T16:13:53.425Z,8.50
2018-05-07T16:16:22.185Z,8.70
2018-05-07T16:18:50.751Z,8.37
2018-05-07T16:21:19.455Z,7.17
2018-05-07T16:23:47.758Z,6.93
2018-05-07T16:26:17.535Z,8.10
2018-05-07T16:28:46.145Z,7.27
2018-05-07T16:31:15.503Z,9.03
2018-05-07T16:33:43.967Z,8.77
2018-05-07T16:36:13.058Z,8.87
2018-05-07T16:38:43.065Z,8.67
2018-05-07T16:41:12.942Z,8.60
2018-05-07T16:43:41.466Z,10.30
2018-05-07T16:46:11.074Z,8.80
2018-05-07T16:48:40.300Z,8.17
2018-05-07T16:51:10.245Z,8.80
2018-05-07T16:53:38.523Z,9.37
2018-05-07T16:56:07.655Z,8.57
2018-05-07T16:58:36.857Z,8.70
2018-05-07T17:01:05.943Z,8.10
2018-05-07T17:03:35.423Z,8.80
2018-05-07T17:06:04.035Z,10.40
2018-05-07T17:08:33.634Z,54.43
2018-05-07T17:11:03.146Z,15.93
2018-05-07T17:13:33.141Z,8.97
2018-05-07T17:16:01.847Z,10.03
2018-05-07T17:18:31.107Z,10.20
2018-05-07T17:20:59.197Z,9.00
2018-05-07T17:23:27.816Z,10.10
2018-05-07T17:25:56.286Z,9.10
2018-05-07T17:28:25.771Z,8.90
2018-05-07T17:30:54.271Z,8.90
2018-05-07T17:33:24.317Z,10.07
2018-05-07T17:35:52.828Z,8.97
2018-05-07T17:38:22.444Z,9.43
2018-05-07T17:40:50.920Z,10.23
2018-05-07T17:43:19.176Z,8.17
2018-05-07T17:46:00.605Z,8.40
2018-05-07T17:48:40.645Z,7.67
2018-05-07T17:51:09.027Z,8.70
2018-05-07T17:53:37.416Z,9.83
2018-05-07T17:56:07.203Z,9.60
2018-05-07T17:58:36.007Z,10.30
2018-05-07T18:01:05.764Z,9.40
2018-05-07T18:03:34.298Z,9.97
2018-05-07T18:06:02.462Z,10.90
2018-05-07T18:08:31.189Z,10.23
2018-05-07T18:10:59.611Z,10.13
2018-05-07T18:13:27.998Z,10.60
2018-05-07T18:15:56.511Z,8.93
2018-05-07T18:18:25.896Z,9.87
2018-05-07T18:20:54.618Z,9.90
2018-05-07T18:23:23.185Z,9.77
2018-05-07T18:25:52.275Z,9.83
2018-05-07T18:28:22.163Z,9.90
2018-05-07T18:30:50.762Z,12.50
2018-05-07T18:33:19.217Z,10.67
2018-05-07T18:35:47.723Z,11.50
2018-05-07T18:38:16.905Z,12.57
2018-05-07T18:40:45.735Z,12.63
2018-05-07T18:43:15.117Z,18.17
2018-05-07T18:45:45.318Z,15.20
2018-05-07T18:48:13.720Z,11.90
2018-05-07T18:50:43.098Z,11.63
2018-05-07T18:53:11.586Z,12.13
2018-05-07T18:55:39.971Z,12.67
2018-05-07T18:58:08.573Z,12.37
2018-05-07T19:00:38.427Z,12.60
2018-05-07T19:03:07.037Z,11.73
2018-05-07T19:05:35.119Z,15.50
2018-05-07T19:08:08.599Z,12.90
2018-05-07T19:10:40.542Z,13.50
2018-05-07T19:13:09.681Z,12.90
2018-05-07T19:15:41.776Z,11.67
2018-05-07T19:18:11.679Z,12.63
2018-05-07T19:20:43.500Z,12.60
2018-05-07T19:23:12.910Z,13.40
2018-05-07T19:25:43.942Z,14.00
2018-05-07T19:28:12.543Z,13.07
2018-05-07T19:30:42.415Z,13.33
2018-05-07T19:33:15.471Z,13.50
2018-05-07T19:35:46.438Z,13.10
2018-05-07T19:38:19.125Z,12.10
2018-05-07T19:40:49.423Z,13.73
2018-05-07T19:45:57.759Z,12.33
2018-05-07T19:48:29.720Z,12.43
2018-05-07T19:50:58.074Z,13.50
2018-05-07T19:53:28.336Z,13.70
2018-05-07T19:56:01.919Z,12.57
2018-05-07T19:58:38.562Z,13.87
2018-05-07T20:01:08.839Z,12.15
2018-05-07T20:03:39.680Z,13.43
2018-05-07T20:06:08.182Z,12.10
2018-05-07T20:08:39.439Z,12.53
2018-05-07T20:11:09.264Z,12.17
2018-05-07T20:13:38.848Z,12.53
2018-05-07T20:16:08.223Z,12.10
2018-05-07T20:18:36.895Z,13.80
2018-05-07T20:21:05.295Z,13.30
2018-05-07T20:23:35.471Z,13.77
2018-05-07T20:26:07.743Z,11.70
2018-05-07T20:28:39.424Z,12.20
2018-05-07T20:31:12.626Z,12.80
2018-05-07T20:33:41.343Z,12.40
2018-05-07T20:36:11.345Z,11.67
2018-05-07T20:38:39.632Z,10.63
2018-05-07T20:41:08.911Z,11.10
2018-05-07T20:43:37.151Z,11.30
2018-05-07T20:46:06.463Z,12.17
2018-05-07T20:48:35.302Z,11.90
2018-05-07T20:51:05.604Z,12.10
2018-05-07T20:53:35.103Z,12.00
2018-05-07T20:56:03.932Z,12.90
2018-05-07T20:58:32.719Z,10.40
2018-05-07T21:01:01.902Z,10.70
2018-05-07T21:03:31.135Z,11.93
2018-05-07T21:05:59.856Z,11.77
2018-05-07T21:08:27.983Z,12.40
2018-05-07T21:10:56.319Z,12.67
2018-05-07T21:13:24.591Z,11.23
2018-05-07T21:15:52.879Z,11.77
2018-05-07T21:18:21.242Z,12.70
2018-05-07T21:20:49.743Z,12.87
2018-05-07T21:23:19.070Z,12.30
2018-05-07T21:25:47.775Z,11.97
2018-05-07T21:28:16.192Z,11.17
2018-05-07T21:30:44.783Z,12.23
2018-05-07T21:33:13.264Z,12.07
2018-05-07T21:35:41.434Z,10.60
2018-05-07T21:38:11.137Z,10.30
2018-05-07T21:40:39.518Z,10.70
2018-05-07T21:43:08.942Z,11.57
2018-05-07T21:45:38.142Z,12.87
2018-05-07T21:48:07.334Z,11.87
2018-05-07T21:50:36.766Z,12.40
2018-05-07T21:53:06.117Z,12.70
2018-05-07T21:55:35.246Z,13.90
2018-05-07T21:58:04.023Z,12.67
2018-05-07T22:00:33.424Z,12.50
2018-05-07T22:03:02.695Z,12.67
2018-05-07T22:05:30.873Z,12.60
2018-05-07T22:07:59.272Z,12.30
2018-05-07T22:10:27.837Z,11.80
2018-05-07T22:12:56.402Z,11.40
2018-05-07T22:15:24.945Z,11.50
2018-05-07T22:17:53.065Z,11.73
2018-05-07T22:20:21.400Z,11.20
2018-05-07T22:22:49.639Z,11.00
2018-05-07T22:25:17.895Z,11.67
2018-05-07T22:27:46.463Z,10.10
2018-05-07T22:30:14.730Z,11.03
2018-05-07T22:32:42.993Z,11.50
2018-05-07T22:35:11.217Z,11.10
2018-05-07T22:37:39.890Z,12.17
2018-05-07T22:40:08.154Z,12.47
2018-05-07T22:42:39.615Z,11.50
2018-05-07T22:45:09.526Z,10.60
2018-05-07T22:47:37.776Z,10.43
2018-05-07T22:50:06.192Z,10.07
2018-05-07T22:52:34.131Z,10.47
2018-05-07T22:57:59.889Z,10.13
2018-05-07T23:00:28.467Z,10.63
2018-05-07T23:02:57.049Z,10.80
2018-05-07T23:05:25.506Z,10.33
2018-05-07T23:07:53.595Z,11.20
2018-05-07T23:10:21.893Z,11.40
2018-05-07T23:12:50.429Z,12.20
2018-05-07T23:15:18.641Z,11.70
2018-05-07T23:17:46.885Z,11.47
2018-05-07T23:20:15.415Z,11.77
2018-05-07T23:22:44.173Z,11.67
2018-05-07T23:25:12.469Z,12.23
2018-05-07T23:27:41.867Z,12.30
2018-05-07T23:30:10.250Z,11.77
2018-05-07T23:32:42.412Z,12.70
2018-05-07T23:35:11.484Z,12.47
2018-05-07T23:37:39.770Z,11.93
2018-05-07T23:40:07.808Z,11.90
2018-05-07T23:42:36.239Z,11.77
2018-05-07T23:45:04.826Z,10.80
2018-05-07T23:47:33.692Z,11.40
2018-05-07T23:50:01.878Z,11.40
2018-05-07T23:52:30.067Z,12.03
2018-05-07T23:54:59.239Z,11.60
2018-05-07T23:57:27.519Z,12.07
2018-05-07T23:59:55.479Z,12.10
